Log in  \/ 

Gillespie Operations

The Plus One Flyers, Inc SEE office is located at 1987 N.Marshall Ave, El Cajon 92020

Your Plus One key will open the lock box where the office key is located. PLEASE BE SURE TO PUT THE KEY BACK IN THE BOX.

We just did a major remodel of the facility and we now have a large meeting/ class room with a large screen TV for presentations. 

Go check it out!


Additional info
  • Operations Officer: Dave Eby
  • Phone Number: 619-279-7499
  • E-Mail: seeops@plusoneflyers.org
  • No comments found

Leave your comments

0 Character restriction
Your text should be more than 10 characters
terms and condition.
Special Instructions

Use your Plus One key to gain access to the real estate lock box.  This key will open the door.  Please remember to return the key to the lock box.

Gillespie Weather

[source: ADDS]
KSEE 180735Z AUTO 28004KT 10SM CLR 08/07 A3006 RMK AO2 =
KNKX 180655Z 28003KT 10SM CLR 10/05 A3006 RMK AO2 SLP175 T01000050 =
TAF KNKX 1803/1903 27009KT 9999 VCSH SCT030 BKN035 BKN050 QNH3001INS TEMPO 1803/1809 6000 -SHRA BKN020 FM181030 VRB05KT 9999 VCSH SCT030 BKN050 QNH3005INS BECMG 1817/1819 27009KT 9999 NSW SCT050 QNH3014INS BECMG 1901/1903 30008KT 9999 BKN050 QNH3006INS T09/1812Z 18/1821Z =
SR / SS: 13:53 / 01:58 UTC ( 2018-03-18)

Gillespie Operations Map